sensor_id;sensor_type;location;lat;lon;timestamp;P1;durP1;ratioP1;P2;durP2;ratioP2
42760;SDS011;31672;47.638;19.026;2023-05-07T00:02:33;7.05;;;5.20;;
42760;SDS011;31672;47.638;19.026;2023-05-07T00:07:37;8.25;;;4.95;;
42760;SDS011;31672;47.638;19.026;2023-05-07T00:12:40;7.67;;;5.77;;
42760;SDS011;31672;47.638;19.026;2023-05-07T00:17:43;7.85;;;5.57;;
42760;SDS011;31672;47.638;19.026;2023-05-07T00:22:47;7.20;;;5.03;;
42760;SDS011;31672;47.638;19.026;2023-05-07T00:27:50;6.38;;;5.10;;
42760;SDS011;31672;47.638;19.026;2023-05-07T00:32:53;5.80;;;4.97;;
42760;SDS011;31672;47.638;19.026;2023-05-07T00:37:57;9.85;;;5.93;;
42760;SDS011;31672;47.638;19.026;2023-05-07T00:43:00;7.75;;;5.18;;
42760;SDS011;31672;47.638;19.026;2023-05-07T00:48:03;7.23;;;5.10;;
42760;SDS011;31672;47.638;19.026;2023-05-07T00:53:06;9.95;;;7.13;;
42760;SDS011;31672;47.638;19.026;2023-05-07T00:58:10;8.07;;;5.40;;
42760;SDS011;31672;47.638;19.026;2023-05-07T01:03:13;5.68;;;4.25;;
42760;SDS011;31672;47.638;19.026;2023-05-07T01:08:17;7.65;;;5.03;;
42760;SDS011;31672;47.638;19.026;2023-05-07T01:13:21;6.93;;;5.28;;
42760;SDS011;31672;47.638;19.026;2023-05-07T01:18:26;5.90;;;4.95;;
42760;SDS011;31672;47.638;19.026;2023-05-07T01:23:31;7.13;;;5.70;;
42760;SDS011;31672;47.638;19.026;2023-05-07T01:28:35;6.80;;;4.90;;
42760;SDS011;31672;47.638;19.026;2023-05-07T01:33:38;5.22;;;4.72;;
42760;SDS011;31672;47.638;19.026;2023-05-07T01:38:43;7.50;;;5.07;;
42760;SDS011;31672;47.638;19.026;2023-05-07T01:43:48;6.70;;;4.90;;
42760;SDS011;31672;47.638;19.026;2023-05-07T01:48:52;9.60;;;6.55;;
42760;SDS011;31672;47.638;19.026;2023-05-07T01:53:57;8.55;;;5.38;;
42760;SDS011;31672;47.638;19.026;2023-05-07T01:59:00;16.40;;;8.83;;
42760;SDS011;31672;47.638;19.026;2023-05-07T02:04:04;28.70;;;14.10;;
42760;SDS011;31672;47.638;19.026;2023-05-07T02:09:07;24.03;;;11.83;;
42760;SDS011;31672;47.638;19.026;2023-05-07T02:14:11;15.15;;;9.25;;
42760;SDS011;31672;47.638;19.026;2023-05-07T02:19:14;17.40;;;10.10;;
42760;SDS011;31672;47.638;19.026;2023-05-07T02:24:17;9.73;;;6.53;;
42760;SDS011;31672;47.638;19.026;2023-05-07T02:29:20;23.97;;;13.27;;
42760;SDS011;31672;47.638;19.026;2023-05-07T02:34:23;14.73;;;9.30;;
42760;SDS011;31672;47.638;19.026;2023-05-07T02:39:26;11.13;;;7.10;;
42760;SDS011;31672;47.638;19.026;2023-05-07T02:44:29;6.18;;;5.10;;
42760;SDS011;31672;47.638;19.026;2023-05-07T02:49:33;9.80;;;6.53;;
42760;SDS011;31672;47.638;19.026;2023-05-07T02:54:36;9.65;;;6.78;;
42760;SDS011;31672;47.638;19.026;2023-05-07T02:59:39;12.47;;;8.83;;
42760;SDS011;31672;47.638;19.026;2023-05-07T03:04:44;11.77;;;7.53;;
42760;SDS011;31672;47.638;19.026;2023-05-07T03:09:47;11.65;;;7.05;;
42760;SDS011;31672;47.638;19.026;2023-05-07T03:14:50;6.35;;;5.35;;
42760;SDS011;31672;47.638;19.026;2023-05-07T03:19:53;6.85;;;5.18;;
42760;SDS011;31672;47.638;19.026;2023-05-07T03:24:56;6.53;;;4.10;;
42760;SDS011;31672;47.638;19.026;2023-05-07T03:29:59;5.88;;;4.75;;
42760;SDS011;31672;47.638;19.026;2023-05-07T03:35:03;9.23;;;6.55;;
42760;SDS011;31672;47.638;19.026;2023-05-07T03:40:07;5.75;;;3.78;;
42760;SDS011;31672;47.638;19.026;2023-05-07T03:45:13;6.47;;;5.70;;
42760;SDS011;31672;47.638;19.026;2023-05-07T03:50:16;7.57;;;5.60;;
42760;SDS011;31672;47.638;19.026;2023-05-07T03:55:19;4.50;;;3.95;;
42760;SDS011;31672;47.638;19.026;2023-05-07T04:00:23;4.25;;;3.78;;
42760;SDS011;31672;47.638;19.026;2023-05-07T04:05:25;4.17;;;3.30;;
42760;SDS011;31672;47.638;19.026;2023-05-07T04:10:29;3.75;;;2.80;;
42760;SDS011;31672;47.638;19.026;2023-05-07T04:15:32;4.13;;;2.80;;
42760;SDS011;31672;47.638;19.026;2023-05-07T04:20:35;3.53;;;3.23;;
42760;SDS011;31672;47.638;19.026;2023-05-07T04:25:39;5.20;;;3.47;;
42760;SDS011;31672;47.638;19.026;2023-05-07T04:30:42;5.93;;;4.50;;
42760;SDS011;31672;47.638;19.026;2023-05-07T04:35:45;5.87;;;4.10;;
42760;SDS011;31672;47.638;19.026;2023-05-07T04:40:49;6.60;;;5.13;;
42760;SDS011;31672;47.638;19.026;2023-05-07T04:45:52;5.80;;;4.00;;
42760;SDS011;31672;47.638;19.026;2023-05-07T04:50:54;7.75;;;5.97;;
42760;SDS011;31672;47.638;19.026;2023-05-07T04:55:58;8.50;;;6.82;;
42760;SDS011;31672;47.638;19.026;2023-05-07T05:01:01;9.80;;;6.75;;
42760;SDS011;31672;47.638;19.026;2023-05-07T05:06:04;7.63;;;6.40;;
42760;SDS011;31672;47.638;19.026;2023-05-07T05:11:08;7.72;;;6.13;;
42760;SDS011;31672;47.638;19.026;2023-05-07T05:16:11;8.18;;;5.90;;
42760;SDS011;31672;47.638;19.026;2023-05-07T05:21:14;5.45;;;4.15;;
42760;SDS011;31672;47.638;19.026;2023-05-07T05:26:17;4.68;;;3.92;;
42760;SDS011;31672;47.638;19.026;2023-05-07T05:31:20;4.82;;;3.70;;
42760;SDS011;31672;47.638;19.026;2023-05-07T05:36:24;5.93;;;3.95;;
42760;SDS011;31672;47.638;19.026;2023-05-07T05:41:27;8.07;;;5.90;;
42760;SDS011;31672;47.638;19.026;2023-05-07T05:46:30;9.50;;;7.85;;
42760;SDS011;31672;47.638;19.026;2023-05-07T05:51:33;11.65;;;7.15;;
42760;SDS011;31672;47.638;19.026;2023-05-07T05:56:36;10.90;;;8.80;;
42760;SDS011;31672;47.638;19.026;2023-05-07T06:01:40;9.93;;;6.95;;
42760;SDS011;31672;47.638;19.026;2023-05-07T06:06:42;8.82;;;6.20;;
42760;SDS011;31672;47.638;19.026;2023-05-07T06:11:45;9.73;;;7.00;;
42760;SDS011;31672;47.638;19.026;2023-05-07T06:16:49;11.00;;;8.10;;
42760;SDS011;31672;47.638;19.026;2023-05-07T06:21:52;8.65;;;7.60;;
42760;SDS011;31672;47.638;19.026;2023-05-07T06:26:55;10.15;;;7.57;;
42760;SDS011;31672;47.638;19.026;2023-05-07T06:32:05;10.18;;;7.43;;
42760;SDS011;31672;47.638;19.026;2023-05-07T06:37:13;9.48;;;7.00;;
42760;SDS011;31672;47.638;19.026;2023-05-07T06:42:17;7.57;;;6.18;;
42760;SDS011;31672;47.638;19.026;2023-05-07T06:47:19;7.43;;;6.28;;
42760;SDS011;31672;47.638;19.026;2023-05-07T06:52:23;6.20;;;4.72;;
42760;SDS011;31672;47.638;19.026;2023-05-07T06:57:26;7.00;;;5.68;;
42760;SDS011;31672;47.638;19.026;2023-05-07T07:02:29;5.55;;;4.40;;
42760;SDS011;31672;47.638;19.026;2023-05-07T07:07:32;4.70;;;3.85;;
42760;SDS011;31672;47.638;19.026;2023-05-07T07:12:35;6.25;;;3.22;;
42760;SDS011;31672;47.638;19.026;2023-05-07T07:17:38;4.15;;;2.67;;
42760;SDS011;31672;47.638;19.026;2023-05-07T07:22:42;4.22;;;3.38;;
42760;SDS011;31672;47.638;19.026;2023-05-07T07:27:45;4.80;;;3.75;;
42760;SDS011;31672;47.638;19.026;2023-05-07T07:32:48;3.78;;;2.95;;
42760;SDS011;31672;47.638;19.026;2023-05-07T07:37:51;3.40;;;2.10;;
42760;SDS011;31672;47.638;19.026;2023-05-07T07:42:54;2.45;;;1.85;;
42760;SDS011;31672;47.638;19.026;2023-05-07T07:47:59;1.80;;;1.45;;
42760;SDS011;31672;47.638;19.026;2023-05-07T07:53:02;1.88;;;1.40;;
42760;SDS011;31672;47.638;19.026;2023-05-07T07:58:05;4.45;;;1.77;;
42760;SDS011;31672;47.638;19.026;2023-05-07T08:03:11;2.83;;;1.80;;
42760;SDS011;31672;47.638;19.026;2023-05-07T08:08:14;8.40;;;2.47;;
42760;SDS011;31672;47.638;19.026;2023-05-07T08:13:17;2.55;;;1.77;;
42760;SDS011;31672;47.638;19.026;2023-05-07T08:18:20;2.10;;;1.30;;
42760;SDS011;31672;47.638;19.026;2023-05-07T08:23:25;2.03;;;1.40;;
42760;SDS011;31672;47.638;19.026;2023-05-07T08:28:28;4.22;;;1.58;;
42760;SDS011;31672;47.638;19.026;2023-05-07T08:33:31;2.70;;;1.63;;
42760;SDS011;31672;47.638;19.026;2023-05-07T08:38:34;1.50;;;1.13;;
42760;SDS011;31672;47.638;19.026;2023-05-07T08:43:38;2.08;;;1.80;;
42760;SDS011;31672;47.638;19.026;2023-05-07T08:48:48;2.25;;;1.40;;
42760;SDS011;31672;47.638;19.026;2023-05-07T08:53:52;2.60;;;1.88;;
42760;SDS011;31672;47.638;19.026;2023-05-07T08:58:55;4.65;;;2.40;;
42760;SDS011;31672;47.638;19.026;2023-05-07T09:04:00;4.57;;;2.75;;
42760;SDS011;31672;47.638;19.026;2023-05-07T09:09:04;4.55;;;3.40;;
42760;SDS011;31672;47.638;19.026;2023-05-07T09:14:07;4.20;;;3.70;;
42760;SDS011;31672;47.638;19.026;2023-05-07T09:19:11;4.60;;;3.50;;
42760;SDS011;31672;47.638;19.026;2023-05-07T09:24:15;4.38;;;3.75;;
42760;SDS011;31672;47.638;19.026;2023-05-07T09:29:18;4.90;;;3.35;;
42760;SDS011;31672;47.638;19.026;2023-05-07T09:34:21;6.00;;;4.05;;
42760;SDS011;31672;47.638;19.026;2023-05-07T09:39:24;2.95;;;2.60;;
42760;SDS011;31672;47.638;19.026;2023-05-07T09:44:28;2.92;;;2.28;;
42760;SDS011;31672;47.638;19.026;2023-05-07T09:49:33;3.33;;;3.00;;
42760;SDS011;31672;47.638;19.026;2023-05-07T09:54:40;4.43;;;2.50;;
42760;SDS011;31672;47.638;19.026;2023-05-07T09:59:45;3.72;;;2.70;;
42760;SDS011;31672;47.638;19.026;2023-05-07T10:04:52;3.22;;;2.60;;
42760;SDS011;31672;47.638;19.026;2023-05-07T10:09:57;2.97;;;2.40;;
42760;SDS011;31672;47.638;19.026;2023-05-07T10:15:02;2.63;;;2.30;;
42760;SDS011;31672;47.638;19.026;2023-05-07T10:20:10;3.05;;;2.50;;
42760;SDS011;31672;47.638;19.026;2023-05-07T10:25:18;3.95;;;2.47;;
42760;SDS011;31672;47.638;19.026;2023-05-07T10:35:38;3.75;;;2.50;;
42760;SDS011;31672;47.638;19.026;2023-05-07T10:40:47;2.42;;;2.22;;
42760;SDS011;31672;47.638;19.026;2023-05-07T10:51:21;3.45;;;1.90;;
42760;SDS011;31672;47.638;19.026;2023-05-07T10:56:24;4.03;;;2.15;;
42760;SDS011;31672;47.638;19.026;2023-05-07T11:12:10;3.35;;;1.90;;
42760;SDS011;31672;47.638;19.026;2023-05-07T11:17:13;2.40;;;1.90;;
42760;SDS011;31672;47.638;19.026;2023-05-07T11:27:35;2.40;;;1.50;;
42760;SDS011;31672;47.638;19.026;2023-05-07T11:32:38;3.38;;;1.85;;
42760;SDS011;31672;47.638;19.026;2023-05-07T11:37:42;2.00;;;1.70;;
42760;SDS011;31672;47.638;19.026;2023-05-07T11:42:47;2.20;;;1.80;;
42760;SDS011;31672;47.638;19.026;2023-05-07T11:47:52;2.45;;;2.00;;
42760;SDS011;31672;47.638;19.026;2023-05-07T11:52:55;3.35;;;2.05;;
42760;SDS011;31672;47.638;19.026;2023-05-07T11:57:58;4.05;;;2.22;;
42760;SDS011;31672;47.638;19.026;2023-05-07T12:03:05;3.92;;;2.10;;
42760;SDS011;31672;47.638;19.026;2023-05-07T12:08:08;3.15;;;1.98;;
42760;SDS011;31672;47.638;19.026;2023-05-07T12:13:21;3.83;;;1.67;;
42760;SDS011;31672;47.638;19.026;2023-05-07T12:18:26;3.25;;;2.00;;
42760;SDS011;31672;47.638;19.026;2023-05-07T12:23:30;1.73;;;1.50;;
42760;SDS011;31672;47.638;19.026;2023-05-07T12:28:37;2.42;;;1.38;;
42760;SDS011;31672;47.638;19.026;2023-05-07T12:33:41;2.20;;;1.35;;
42760;SDS011;31672;47.638;19.026;2023-05-07T12:38:44;2.95;;;1.60;;
42760;SDS011;31672;47.638;19.026;2023-05-07T12:43:47;2.95;;;1.95;;
42760;SDS011;31672;47.638;19.026;2023-05-07T12:48:51;4.28;;;2.10;;
42760;SDS011;31672;47.638;19.026;2023-05-07T12:53:55;3.35;;;1.70;;
42760;SDS011;31672;47.638;19.026;2023-05-07T12:58:59;1.95;;;1.40;;
42760;SDS011;31672;47.638;19.026;2023-05-07T13:04:02;2.03;;;1.55;;
42760;SDS011;31672;47.638;19.026;2023-05-07T13:09:08;1.77;;;1.60;;
42760;SDS011;31672;47.638;19.026;2023-05-07T13:14:11;2.22;;;1.35;;
42760;SDS011;31672;47.638;19.026;2023-05-07T13:19:14;2.17;;;1.52;;
42760;SDS011;31672;47.638;19.026;2023-05-07T13:24:17;2.25;;;1.40;;
42760;SDS011;31672;47.638;19.026;2023-05-07T13:29:20;2.30;;;2.00;;
42760;SDS011;31672;47.638;19.026;2023-05-07T13:34:30;2.50;;;1.90;;
42760;SDS011;31672;47.638;19.026;2023-05-07T13:39:34;3.65;;;2.30;;
42760;SDS011;31672;47.638;19.026;2023-05-07T13:44:36;3.25;;;2.42;;
42760;SDS011;31672;47.638;19.026;2023-05-07T13:49:40;3.13;;;1.80;;
42760;SDS011;31672;47.638;19.026;2023-05-07T13:54:43;4.45;;;1.80;;
42760;SDS011;31672;47.638;19.026;2023-05-07T13:59:46;2.03;;;1.60;;
42760;SDS011;31672;47.638;19.026;2023-05-07T14:04:49;3.72;;;1.60;;
42760;SDS011;31672;47.638;19.026;2023-05-07T14:09:52;3.25;;;1.17;;
42760;SDS011;31672;47.638;19.026;2023-05-07T14:14:55;1.88;;;1.50;;
42760;SDS011;31672;47.638;19.026;2023-05-07T14:19:58;3.97;;;1.83;;
42760;SDS011;31672;47.638;19.026;2023-05-07T14:25:01;2.30;;;1.63;;
42760;SDS011;31672;47.638;19.026;2023-05-07T14:30:14;2.58;;;1.85;;
42760;SDS011;31672;47.638;19.026;2023-05-07T14:35:19;2.22;;;1.55;;
42760;SDS011;31672;47.638;19.026;2023-05-07T14:40:22;2.10;;;1.60;;
42760;SDS011;31672;47.638;19.026;2023-05-07T14:45:24;2.53;;;2.03;;
42760;SDS011;31672;47.638;19.026;2023-05-07T14:50:28;3.58;;;2.63;;
42760;SDS011;31672;47.638;19.026;2023-05-07T14:55:31;2.90;;;2.13;;
42760;SDS011;31672;47.638;19.026;2023-05-07T15:00:36;5.22;;;2.60;;
42760;SDS011;31672;47.638;19.026;2023-05-07T15:05:39;3.60;;;2.88;;
42760;SDS011;31672;47.638;19.026;2023-05-07T15:10:43;3.40;;;2.70;;
42760;SDS011;31672;47.638;19.026;2023-05-07T15:15:46;2.80;;;2.45;;
42760;SDS011;31672;47.638;19.026;2023-05-07T15:20:49;3.30;;;2.38;;
42760;SDS011;31672;47.638;19.026;2023-05-07T15:25:53;3.05;;;2.20;;
42760;SDS011;31672;47.638;19.026;2023-05-07T15:30:56;3.35;;;2.20;;
42760;SDS011;31672;47.638;19.026;2023-05-07T15:35:59;2.90;;;2.15;;
42760;SDS011;31672;47.638;19.026;2023-05-07T15:41:02;3.20;;;1.77;;
42760;SDS011;31672;47.638;19.026;2023-05-07T15:46:05;2.70;;;2.08;;
42760;SDS011;31672;47.638;19.026;2023-05-07T15:51:08;5.40;;;2.08;;
42760;SDS011;31672;47.638;19.026;2023-05-07T15:56:12;3.55;;;2.60;;
42760;SDS011;31672;47.638;19.026;2023-05-07T16:01:15;3.78;;;2.08;;
42760;SDS011;31672;47.638;19.026;2023-05-07T16:06:19;3.47;;;1.90;;
42760;SDS011;31672;47.638;19.026;2023-05-07T16:11:21;3.33;;;1.83;;
42760;SDS011;31672;47.638;19.026;2023-05-07T16:16:24;2.03;;;1.58;;
42760;SDS011;31672;47.638;19.026;2023-05-07T16:21:31;3.08;;;1.60;;
42760;SDS011;31672;47.638;19.026;2023-05-07T16:26:34;1.92;;;1.40;;
42760;SDS011;31672;47.638;19.026;2023-05-07T16:31:37;3.50;;;1.48;;
42760;SDS011;31672;47.638;19.026;2023-05-07T16:36:40;3.05;;;1.50;;
42760;SDS011;31672;47.638;19.026;2023-05-07T16:41:44;1.52;;;1.17;;
42760;SDS011;31672;47.638;19.026;2023-05-07T16:46:49;4.45;;;1.27;;
42760;SDS011;31672;47.638;19.026;2023-05-07T16:51:54;2.72;;;1.27;;
42760;SDS011;31672;47.638;19.026;2023-05-07T16:56:57;4.25;;;1.42;;
42760;SDS011;31672;47.638;19.026;2023-05-07T17:02:01;1.85;;;1.10;;
42760;SDS011;31672;47.638;19.026;2023-05-07T17:07:04;2.58;;;1.58;;
42760;SDS011;31672;47.638;19.026;2023-05-07T17:12:07;1.83;;;1.23;;
42760;SDS011;31672;47.638;19.026;2023-05-07T17:17:10;2.17;;;1.20;;
42760;SDS011;31672;47.638;19.026;2023-05-07T17:22:14;1.45;;;0.95;;
42760;SDS011;31672;47.638;19.026;2023-05-07T17:27:17;6.03;;;2.03;;
42760;SDS011;31672;47.638;19.026;2023-05-07T17:32:20;5.93;;;3.22;;
42760;SDS011;31672;47.638;19.026;2023-05-07T17:37:23;4.85;;;2.88;;
42760;SDS011;31672;47.638;19.026;2023-05-07T17:42:31;5.30;;;2.53;;
42760;SDS011;31672;47.638;19.026;2023-05-07T17:47:35;2.95;;;1.83;;
42760;SDS011;31672;47.638;19.026;2023-05-07T17:52:38;3.35;;;2.22;;
42760;SDS011;31672;47.638;19.026;2023-05-07T17:57:42;4.82;;;2.50;;
42760;SDS011;31672;47.638;19.026;2023-05-07T18:02:45;6.82;;;3.42;;
42760;SDS011;31672;47.638;19.026;2023-05-07T18:07:49;6.30;;;2.63;;
42760;SDS011;31672;47.638;19.026;2023-05-07T18:12:52;7.00;;;3.50;;
42760;SDS011;31672;47.638;19.026;2023-05-07T18:17:55;9.60;;;5.68;;
42760;SDS011;31672;47.638;19.026;2023-05-07T18:22:58;5.57;;;3.22;;
42760;SDS011;31672;47.638;19.026;2023-05-07T18:28:01;7.05;;;4.68;;
42760;SDS011;31672;47.638;19.026;2023-05-07T18:33:05;4.50;;;3.38;;
42760;SDS011;31672;47.638;19.026;2023-05-07T18:38:09;4.43;;;3.38;;
42760;SDS011;31672;47.638;19.026;2023-05-07T18:43:12;3.47;;;3.00;;
42760;SDS011;31672;47.638;19.026;2023-05-07T18:48:15;4.82;;;3.50;;
42760;SDS011;31672;47.638;19.026;2023-05-07T18:53:19;4.22;;;3.15;;
42760;SDS011;31672;47.638;19.026;2023-05-07T18:58:22;4.43;;;3.03;;
42760;SDS011;31672;47.638;19.026;2023-05-07T19:03:25;3.80;;;2.78;;
42760;SDS011;31672;47.638;19.026;2023-05-07T19:08:28;3.83;;;2.67;;
42760;SDS011;31672;47.638;19.026;2023-05-07T19:13:32;5.55;;;3.53;;
42760;SDS011;31672;47.638;19.026;2023-05-07T19:18:35;5.10;;;3.78;;
42760;SDS011;31672;47.638;19.026;2023-05-07T19:23:38;5.38;;;2.90;;
42760;SDS011;31672;47.638;19.026;2023-05-07T19:28:46;6.38;;;3.35;;
42760;SDS011;31672;47.638;19.026;2023-05-07T19:34:11;5.38;;;3.22;;
42760;SDS011;31672;47.638;19.026;2023-05-07T19:39:17;6.28;;;3.00;;
42760;SDS011;31672;47.638;19.026;2023-05-07T19:44:21;4.70;;;2.97;;
42760;SDS011;31672;47.638;19.026;2023-05-07T19:49:24;4.32;;;2.65;;
42760;SDS011;31672;47.638;19.026;2023-05-07T19:54:27;3.92;;;2.80;;
42760;SDS011;31672;47.638;19.026;2023-05-07T19:59:30;6.78;;;3.03;;
42760;SDS011;31672;47.638;19.026;2023-05-07T20:04:34;3.63;;;2.60;;
42760;SDS011;31672;47.638;19.026;2023-05-07T20:09:39;4.63;;;2.15;;
42760;SDS011;31672;47.638;19.026;2023-05-07T20:14:42;5.68;;;3.60;;
42760;SDS011;31672;47.638;19.026;2023-05-07T20:19:45;8.10;;;4.30;;
42760;SDS011;31672;47.638;19.026;2023-05-07T20:24:48;4.57;;;2.57;;
42760;SDS011;31672;47.638;19.026;2023-05-07T20:29:51;6.40;;;3.37;;
42760;SDS011;31672;47.638;19.026;2023-05-07T20:34:55;3.97;;;2.30;;
42760;SDS011;31672;47.638;19.026;2023-05-07T20:39:58;3.60;;;2.22;;
42760;SDS011;31672;47.638;19.026;2023-05-07T20:45:02;2.90;;;1.83;;
42760;SDS011;31672;47.638;19.026;2023-05-07T20:50:05;6.77;;;2.53;;
42760;SDS011;31672;47.638;19.026;2023-05-07T20:55:09;2.80;;;2.07;;
42760;SDS011;31672;47.638;19.026;2023-05-07T21:00:13;2.40;;;1.90;;
42760;SDS011;31672;47.638;19.026;2023-05-07T21:05:18;4.73;;;2.60;;
42760;SDS011;31672;47.638;19.026;2023-05-07T21:10:21;4.13;;;2.20;;
42760;SDS011;31672;47.638;19.026;2023-05-07T21:15:25;3.00;;;2.20;;
42760;SDS011;31672;47.638;19.026;2023-05-07T21:20:28;3.10;;;2.17;;
42760;SDS011;31672;47.638;19.026;2023-05-07T21:25:31;3.50;;;2.13;;
42760;SDS011;31672;47.638;19.026;2023-05-07T21:30:35;2.93;;;2.17;;
42760;SDS011;31672;47.638;19.026;2023-05-07T21:35:38;3.40;;;2.47;;
42760;SDS011;31672;47.638;19.026;2023-05-07T21:40:41;5.23;;;2.17;;
42760;SDS011;31672;47.638;19.026;2023-05-07T21:45:44;3.60;;;2.90;;
42760;SDS011;31672;47.638;19.026;2023-05-07T21:50:47;4.33;;;2.27;;
42760;SDS011;31672;47.638;19.026;2023-05-07T21:56:04;4.40;;;2.63;;
42760;SDS011;31672;47.638;19.026;2023-05-07T22:01:07;4.10;;;2.57;;
42760;SDS011;31672;47.638;19.026;2023-05-07T22:06:13;5.03;;;2.43;;
42760;SDS011;31672;47.638;19.026;2023-05-07T22:11:22;4.03;;;2.93;;
42760;SDS011;31672;47.638;19.026;2023-05-07T22:16:26;4.07;;;2.80;;
42760;SDS011;31672;47.638;19.026;2023-05-07T22:21:29;3.70;;;2.60;;
42760;SDS011;31672;47.638;19.026;2023-05-07T22:26:32;3.70;;;2.53;;
42760;SDS011;31672;47.638;19.026;2023-05-07T22:31:35;4.30;;;2.60;;
42760;SDS011;31672;47.638;19.026;2023-05-07T22:36:38;3.80;;;3.27;;
42760;SDS011;31672;47.638;19.026;2023-05-07T22:41:41;3.57;;;2.53;;
42760;SDS011;31672;47.638;19.026;2023-05-07T22:46:44;3.80;;;2.30;;
42760;SDS011;31672;47.638;19.026;2023-05-07T22:51:47;4.07;;;2.80;;
42760;SDS011;31672;47.638;19.026;2023-05-07T22:56:50;4.30;;;3.00;;
42760;SDS011;31672;47.638;19.026;2023-05-07T23:01:54;3.77;;;2.47;;
42760;SDS011;31672;47.638;19.026;2023-05-07T23:06:58;2.73;;;2.30;;
42760;SDS011;31672;47.638;19.026;2023-05-07T23:12:01;3.37;;;2.50;;
42760;SDS011;31672;47.638;19.026;2023-05-07T23:17:04;4.80;;;2.37;;
42760;SDS011;31672;47.638;19.026;2023-05-07T23:22:07;3.83;;;2.90;;
42760;SDS011;31672;47.638;19.026;2023-05-07T23:27:11;3.83;;;2.87;;
42760;SDS011;31672;47.638;19.026;2023-05-07T23:32:14;3.80;;;2.77;;
42760;SDS011;31672;47.638;19.026;2023-05-07T23:37:17;3.60;;;2.40;;
42760;SDS011;31672;47.638;19.026;2023-05-07T23:42:20;4.60;;;2.43;;
42760;SDS011;31672;47.638;19.026;2023-05-07T23:47:23;4.00;;;2.63;;
42760;SDS011;31672;47.638;19.026;2023-05-07T23:52:26;4.57;;;3.13;;
42760;SDS011;31672;47.638;19.026;2023-05-07T23:57:29;2.93;;;2.10;;
